Time;durP1;ratioP1;P1;durP2;ratioP2;P2;SDS_P1;SDS_P2;PMS_P1;PMS_P2;Temp;Humidity;BMP_temperature;BMP_pressure;BME280_temperature;BME280_humidity;BME280_pressure;Samples;Min_cycle;Max_cycle;Signal;HPM_P1;HPM_P2
2023/10/01 08:33:51;;;;;;;26.30;12.13;;;;;;;15.15;81.62;99166.41;4911518;29;20160;-88
2023/10/01 15:07:54;;;;;;;7.80;3.25;;;;;;;16.06;57.74;99321.13;4872202;29;20521;-91
2023/10/01 15:10:50;;;;;;;12.15;3.58;;;;;;;16.04;57.88;99319.84;4874761;29;20037;-93
2023/10/01 15:14:11;;;;;;;14.73;3.67;;;;;;;15.99;57.72;99329.16;4843938;29;20042;-91
2023/10/01 15:22:24;;;;;;;14.75;3.60;;;;;;;15.79;58.07;99328.16;4863295;29;20131;-91
2023/10/01 15:36:49;;;;;;;14.82;3.78;;;;;;;15.31;58.27;99263.69;4879254;29;20057;-92
2023/10/01 15:40:51;;;;;;;12.10;3.90;;;;;;;15.44;58.94;99295.59;4894926;29;20080;-90
2023/10/01 15:53:30;;;;;;;13.00;4.25;;;;;;;15.17;59.18;99283.34;4914228;29;20071;-89
2023/10/01 16:03:26;;;;;;;13.63;3.80;;;;;;;15.42;58.87;99321.88;4864501;29;20081;-85
2023/10/01 16:05:56;;;;;;;13.00;3.78;;;;;;;15.54;59.26;99349.44;4847090;29;20054;-84
2023/10/01 16:08:25;;;;;;;19.48;4.82;;;;;;;15.54;59.91;99341.16;4860226;29;20056;-87
2023/10/01 16:11:00;;;;;;;11.75;4.60;;;;;;;15.51;59.46;99330.84;4836611;29;20539;-85
2023/10/01 16:13:31;;;;;;;16.88;4.07;;;;;;;15.44;58.93;99314.09;4818949;29;20519;-88
2023/10/01 16:16:11;;;;;;;13.67;4.80;;;;;;;15.52;59.25;99335.97;4860913;29;20064;-84
2023/10/01 16:18:44;;;;;;;12.07;4.30;;;;;;;15.46;59.14;99326.38;4834966;29;20061;-84
2023/10/01 16:21:16;;;;;;;14.00;4.43;;;;;;;15.49;58.71;99324.84;4839121;29;20554;-87
2023/10/01 16:23:55;;;;;;;10.98;4.20;;;;;;;15.32;58.77;99308.56;4847766;29;20041;-85
2023/10/01 16:26:24;;;;;;;11.70;4.28;;;;;;;15.60;58.84;99334.28;4861406;29;20045;-87
2023/10/01 16:28:55;;;;;;;12.95;4.47;;;;;;;15.32;58.57;99305.81;4852852;29;20042;-91
2023/10/01 16:31:26;;;;;;;11.73;4.00;;;;;;;15.58;58.81;99339.31;4856644;29;20054;-87
2023/10/01 16:34:25;;;;;;;9.95;3.88;;;;;;;15.51;58.58;99339.09;4870994;29;20148;-91
2023/10/01 16:48:25;;;;;;;9.40;3.55;;;;;;;14.68;58.44;99249.47;4896781;29;20064;-92
2023/10/01 16:56:00;;;;;;;10.82;3.55;;;;;;;14.84;58.81;99290.88;4905501;29;20055;-90
2023/10/01 16:58:49;;;;;;;10.05;3.72;;;;;;;15.03;59.53;99324.16;4883038;29;20041;-86
2023/10/01 17:01:37;;;;;;;17.77;4.57;;;;;;;14.69;60.13;99273.06;4844425;29;20052;-88
2023/10/01 17:04:27;;;;;;;13.23;4.35;;;;;;;14.55;60.55;99267.91;4879115;29;20079;-89
2023/10/01 17:06:55;;;;;;;10.82;4.40;;;;;;;14.56;60.39;99275.00;4831074;29;20044;-85
2023/10/01 17:12:23;;;;;;;14.30;3.95;;;;;;;14.47;59.95;99271.50;4862968;29;20056;-88
2023/10/01 17:14:52;;;;;;;14.88;3.88;;;;;;;14.74;59.71;99327.91;4876786;29;20064;-84
2023/10/01 17:17:19;;;;;;;14.50;4.15;;;;;;;14.69;60.83;99325.34;4831900;29;20477;-88
2023/10/01 17:20:28;;;;;;;15.77;4.55;;;;;;;14.70;60.82;99327.78;4869556;29;20061;-87
2023/10/01 17:22:57;;;;;;;13.85;4.30;;;;;;;14.54;61.19;99310.31;4862738;29;20054;-87
2023/10/01 17:25:37;;;;;;;10.10;4.22;;;;;;;14.40;61.53;99305.06;4864930;29;20126;-87
2023/10/01 17:28:23;;;;;;;21.08;5.15;;;;;;;14.39;60.96;99311.72;4875867;29;20052;-87
2023/10/01 17:31:17;;;;;;;17.73;4.40;;;;;;;14.19;60.91;99298.81;4907818;29;20055;-89
2023/10/01 17:40:17;;;;;;;18.05;5.15;;;;;;;14.26;62.31;99327.34;4893963;29;20040;-88
2023/10/01 17:43:27;;;;;;;14.85;5.50;;;;;;;13.95;62.52;99308.53;4884562;29;20065;-92
2023/10/01 17:46:02;;;;;;;17.23;5.78;;;;;;;14.13;63.16;99346.88;4829180;29;20122;-89
2023/10/01 17:48:35;;;;;;;20.20;5.47;;;;;;;13.95;62.97;99335.22;4831453;29;20041;-88
2023/10/01 17:51:05;;;;;;;29.33;7.13;;;;;;;13.39;63.33;99258.53;4817992;29;20056;-85
2023/10/01 17:53:50;;;;;;;20.42;5.85;;;;;;;13.54;63.64;99276.34;4853879;29;20037;-91
2023/10/01 17:56:27;;;;;;;14.57;5.20;;;;;;;13.50;63.09;99258.94;4852884;29;20050;-86
2023/10/01 18:03:10;;;;;;;19.85;6.70;;;;;;;14.03;63.19;99345.34;4855067;29;20117;-90
2023/10/01 18:08:52;;;;;;;19.10;4.97;;;;;;;13.33;62.95;99232.41;4824441;29;20054;-91
2023/10/01 18:12:28;;;;;;;12.93;4.53;;;;;;;14.07;62.98;99335.28;4827927;29;20492;-87
2023/10/01 18:16:09;;;;;;;15.70;5.05;;;;;;;13.97;62.94;99342.00;4812108;29;20046;-89
2023/10/01 18:19:18;;;;;;;15.43;4.50;;;;;;;13.88;63.32;99340.44;4832507;29;20050;-91
2023/10/01 18:22:02;;;;;;;19.48;4.35;;;;;;;13.40;63.03;99280.16;4790295;29;20148;-90
2023/10/01 18:25:18;;;;;;;16.80;4.57;;;;;;;13.88;63.01;99340.44;4856304;29;20057;-87
2023/10/01 18:27:56;;;;;;;14.73;4.45;;;;;;;13.50;63.08;99280.91;4811010;29;20537;-91
2023/10/01 18:33:45;;;;;;;11.48;4.35;;;;;;;13.60;63.03;99306.03;4848997;29;20054;-90
2023/10/01 18:39:54;;;;;;;14.15;4.38;;;;;;;13.39;63.60;99278.53;4813608;29;20651;-87
2023/10/01 18:42:22;;;;;;;11.48;4.35;;;;;;;13.76;63.11;99336.47;4814572;29;20042;-91
2023/10/01 18:44:52;;;;;;;19.15;4.35;;;;;;;13.54;63.60;99312.88;4813529;29;20088;-90
2023/10/01 18:47:24;;;;;;;10.98;4.47;;;;;;;13.73;63.35;99352.81;4818547;29;20071;-90
2023/10/01 18:49:51;;;;;;;15.10;4.53;;;;;;;13.68;63.64;99350.28;4799076;29;20054;-87
2023/10/01 18:52:20;;;;;;;13.13;4.13;;;;;;;13.22;63.52;99264.91;4822756;29;20054;-90
2023/10/01 18:55:31;;;;;;;19.23;4.22;;;;;;;13.59;63.86;99337.38;4804885;29;20057;-93
2023/10/01 18:58:17;;;;;;;14.07;4.38;;;;;;;13.54;63.92;99331.28;4742118;30;20073;-91
2023/10/01 19:01:12;;;;;;;15.55;5.10;;;;;;;13.49;63.95;99331.47;4728607;30;20072;-86
2023/10/01 19:03:46;;;;;;;18.10;5.68;;;;;;;13.57;64.38;99355.34;4740644;30;20064;-92
2023/10/01 19:14:16;;;;;;;20.05;4.80;;;;;;;13.46;64.88;99345.88;4712245;30;20064;-92
2023/10/01 19:17:41;;;;;;;19.98;4.82;;;;;;;13.45;64.86;99344.28;4727880;30;20471;-91
2023/10/01 19:20:33;;;;;;;14.98;4.82;;;;;;;13.31;65.11;99339.81;4736911;30;20068;-88
2023/10/01 19:23:30;;;;;;;23.55;5.60;;;;;;;13.06;65.09;99296.78;4736990;30;20067;-85
2023/10/01 19:26:49;;;;;;;21.52;5.18;;;;;;;13.15;65.78;99325.81;4687205;30;20149;-87
2023/10/01 19:29:19;;;;;;;16.63;4.65;;;;;;;12.82;65.71;99276.22;4685405;30;20117;-91
2023/10/01 19:31:53;;;;;;;20.50;4.95;;;;;;;13.17;66.06;99340.00;4687479;30;20065;-88
2023/10/01 19:34:22;;;;;;;10.40;4.40;;;;;;;12.92;66.04;99295.06;4688759;30;20049;-85
2023/10/01 19:36:50;;;;;;;;;;;;;;;13.25;66.09;99345.81;4720018;30;20052;-92
2023/10/01 19:39:23;;;;;;;18.48;4.70;;;;;;;12.94;65.98;99297.47;4728445;30;19933;-91
2023/10/01 19:42:02;;;;;;;11.38;4.18;;;;;;;12.78;65.97;99264.31;4724351;30;20048;-87
2023/10/01 19:44:40;;;;;;;13.52;4.50;;;;;;;13.03;66.00;99305.69;4697295;30;20152;-90
2023/10/01 19:47:18;;;;;;;22.75;4.82;;;;;;;12.82;66.78;99276.22;4720861;30;20057;-89
2023/10/01 19:49:48;;;;;;;15.15;4.68;;;;;;;13.13;66.16;99308.06;4702206;30;20060;-84
2023/10/01 19:52:25;;;;;;;15.30;5.30;;;;;;;13.20;66.10;99324.81;4702914;30;20049;-92
2023/10/01 19:55:13;;;;;;;17.55;5.35;;;;;;;12.68;66.30;99245.44;4781173;24;20068;-93
2023/10/01 19:58:02;;;;;;;13.38;4.60;;;;;;;13.24;66.13;99342.25;4865380;29;20043;-92
2023/10/01 20:00:33;;;;;;;12.63;4.78;;;;;;;13.07;66.40;99323.88;4840242;29;20062;-94
2023/10/01 21:20:17;;;;;;;14.30;3.58;;;;;;;12.50;71.40;99318.75;6029063;23;20027;31
2023/10/01 21:34:18;;;;;;;;;;;;;;;12.44;72.20;99309.06;5341012;23;20047;-93
2023/10/01 21:37:32;;;;;;;13.80;4.30;;;;;;;12.37;72.29;99315.03;4929467;29;19923;-95
2023/10/01 21:48:26;;;;;;;23.15;4.30;;;;;;;12.04;72.48;99262.69;4948285;23;20059;-93
2023/10/01 21:50:58;;;;;;;11.40;4.13;;;;;;;11.80;72.60;99230.31;4895552;29;20069;-93
2023/10/01 21:57:10;;;;;;;17.15;4.55;;;;;;;12.21;72.40;99283.78;5584928;23;20027;-92
2023/10/01 21:59:39;;;;;;;13.18;4.53;;;;;;;12.40;72.84;99321.81;4869630;29;20048;-90
2023/10/01 22:09:43;;;;;;;14.07;4.45;;;;;;;12.35;72.84;99320.06;4861784;29;20042;-91
2023/10/01 22:16:43;;;;;;;13.43;4.40;;;;;;;12.00;73.08;99264.47;5039097;23;20120;-92
2023/10/01 22:19:12;;;;;;;12.95;3.90;;;;;;;11.86;72.93;99245.47;4889856;29;20503;-91
2023/10/01 22:21:40;;;;;;;13.55;5.20;;;;;;;11.94;73.37;99263.03;4874582;29;20045;-91
2023/10/01 22:24:16;;;;;;;19.80;4.93;;;;;;;12.24;73.67;99316.03;4860305;29;20042;-92
2023/10/01 22:26:45;;;;;;;16.73;5.05;;;;;;;11.63;73.63;99209.22;4870327;29;20052;-92
2023/10/01 22:29:14;;;;;;;13.82;5.38;;;;;;;11.71;73.62;99229.50;4856926;29;20103;-91
2023/10/01 22:35:41;;;;;;;12.50;4.75;;;;;;;11.82;73.76;99251.88;4872970;29;20055;-91
2023/10/01 22:38:11;;;;;;;;;;;;;;;12.26;73.67;99316.53;4860859;23;20053;-91
2023/10/01 22:41:15;;;;;;;13.32;5.00;;;;;;;11.62;73.81;99229.50;5413875;23;19929;-92
2023/10/01 22:43:32;;;;;;;10.50;4.65;;;;;;;11.78;74.31;99259.94;4881372;24;20059;-92
2023/10/01 22:48:52;;;;;;;12.68;5.55;;;;;;;12.00;74.04;99289.13;4838339;29;20054;-91
2023/10/01 22:51:27;;;;;;;21.45;6.53;;;;;;;12.12;74.29;99311.22;4834057;29;20073;-90
2023/10/01 22:57:12;;;;;;;24.42;6.10;;;;;;;11.95;74.05;99290.13;4888014;29;20056;-92
2023/10/01 23:03:19;;;;;;;18.75;5.03;;;;;;;11.98;74.31;99296.84;4903107;29;20044;-94
2023/10/01 23:09:31;;;;;;;17.20;4.40;;;;;;;11.93;74.80;99300.56;5566430;23;20079;-90
2023/10/01 23:11:57;;;;;;;;;;;;;;;12.01;74.84;99312.66;4883797;29;20059;-91
2023/10/01 23:14:27;;;;;;;17.67;4.93;;;;;;;11.85;74.74;99293.16;4888138;29;19911;-89
2023/10/01 23:16:57;;;;;;;15.65;5.10;;;;;;;11.80;74.79;99285.06;4885237;29;20086;-89
2023/10/01 23:19:53;;;;;;;23.02;5.32;;;;;;;11.68;74.81;99258.31;4868820;29;20037;-89
2023/10/01 23:22:17;;;;;;;14.65;5.45;;;;;;;11.99;74.88;99315.72;5603163;23;20032;-90
2023/10/01 23:36:08;;;;;;;22.98;5.95;;;;;;;12.01;75.03;99314.59;4912148;29;20063;-91
2023/10/01 23:38:35;;;;;;;16.23;5.93;;;;;;;11.49;74.83;99234.00;4903861;23;20096;-91
2023/10/01 23:41:48;;;;;;;22.02;6.00;;;;;;;11.56;75.50;99247.22;4877456;29;20052;-90
2023/10/01 23:44:26;;;;;;;25.55;6.47;;;;;;;11.87;75.66;99310.06;4859170;29;20049;-91
2023/10/01 23:53:05;;;;;;;20.33;5.57;;;;;;;11.85;76.08;99306.84;4887555;29;20040;-92
2023/10/01 23:55:35;;;;;;;24.52;6.97;;;;;;;11.54;75.90;99246.72;4867028;29;20042;-92
2023/10/01 23:58:12;;;;;;;26.88;6.50;;;;;;;11.57;75.77;99265.25;4869394;29;20036;-89
